Kezdőlap
METAR-TAF:

METAR-TAF

Repülőterek :

Kastamonu, Törökország

földrajzi szélesség: 41-19-01N, földrajzi hosszúság: 33-47-46E, magasság: 1073 m

Jelenlegi meteorológiai megfigyelések

A jelentés 16 órával és 2 perccel ezelõtt készült, 10:50 UTC
Északkeleti szél 4 kt
Hőmérséklet 13°C
Páratartalom 28%
Légköri nyomás 1018 hPa
Látótávolság 10 km, vagy több
felhőtlen 1500 m magasságban, és nincs gomolyfelhõ

METAR: LTAL 211050Z 04004KT CAVOK 13/M05 Q1018

Idő: 05:52 (02:52 UTC)

Előrejelzés

A jelentés 1 órával és 12 perccel ezelõtt készült, 01:40 UTC
Az előrejelzés 22-én 03 óra UTC és 22-én 12 óra UTC között érvényes
Különbözõ irányokból fújó szél 2 kt
Látótávolság 10 km, vagy több
felhőtlen 1500 m magasságban, és nincs gomolyfelhõ
22-én 06 óra UTC és 22-én 09 óra UTC között fokozatosan kialakuló
Szórványos felhőzet 3500 lábon

TAF: LTAL 220140Z 2203/2212 VRB02KT CAVOK BECMG 2206/2209 SCT035

Meteorológiai megfigyelések és előrejelzések több, mint 4000 repülőtéren (METAR és TAF jelentéseket).

A térképen piros és sárga pontok jelzik az elérhető meteorológiai állomásokat.

Mozgassa az egeret a pont fölött, hogy megjelenjen az állomás neve.

Azután kattintson az időjárási megfigyelések és előrejelzések megtekintéséhez.

A térkép megváltoztatása: kattintson a fekete keresztel jelölt zöld gombra ráközelítéshez, a vonallal jelölt zöld gombra távolításhoz, vagy a zöld nyilakra a szomszédos térképek eléréséhez.


METAR-TAF: